Time;durP1;ratioP1;P1;durP2;ratioP2;P2;SDS_P1;SDS_P2;PMS_P1;PMS_P2;Temp;Humidity;BMP_temperature;BMP_pressure;BME280_temperature;BME280_humidity;BME280_pressure;Samples;Min_cycle;Max_cycle;Signal;HPM_P1;HPM_P2
2023/07/14 00:01:40;;;;;;;5.70;4.50;;;;;;;15.28;74.40;99827.80;220392;1256;140168;-67
2023/07/14 00:06:46;;;;;;;6.40;5.80;;;;;;;15.40;74.89;99817.67;220021;1256;141817;-68
2023/07/14 00:11:52;;;;;;;7.70;5.30;;;;;;;15.53;74.91;99822.23;218828;1256;140983;-68
2023/07/14 00:16:57;;;;;;;6.60;4.70;;;;;;;15.63;75.05;99815.66;218501;1256;140138;-68
2023/07/14 00:22:02;;;;;;;4.50;4.20;;;;;;;15.67;75.00;99818.19;218523;1257;142474;-68
2023/07/14 00:27:17;;;;;;;5.30;4.90;;;;;;;15.67;74.98;99819.75;218018;1257;141085;-68
2023/07/14 00:32:22;;;;;;;5.90;5.30;;;;;;;15.64;74.90;99815.66;217872;1256;231251;-67
2023/07/14 00:37:27;;;;;;;5.60;4.20;;;;;;;15.57;74.99;99817.31;218815;1257;152149;-67
2023/07/14 00:42:32;;;;;;;5.60;4.90;;;;;;;15.48;74.83;99815.55;217538;1257;140970;-67
2023/07/14 00:47:37;;;;;;;5.20;4.70;;;;;;;15.33;74.56;99813.58;218323;1256;141719;-67
2023/07/14 00:52:42;;;;;;;6.00;4.70;;;;;;;15.19;74.87;99817.88;217475;1257;139995;-68
2023/07/14 00:57:46;;;;;;;5.00;4.60;;;;;;;15.12;74.97;99821.55;218088;1258;140908;-67
2023/07/14 01:02:51;;;;;;;3.60;3.20;;;;;;;15.03;75.20;99816.25;217597;1260;140324;-69
2023/07/14 01:07:55;;;;;;;6.00;5.50;;;;;;;14.85;74.94;99825.56;217803;1256;140271;-71
2023/07/14 01:13:06;;;;;;;5.50;5.00;;;;;;;14.73;75.09;99832.85;217390;1256;154426;-67
2023/07/14 01:18:12;;;;;;;10.50;5.00;;;;;;;14.60;74.90;99844.58;218551;1256;140107;-67
2023/07/14 01:23:36;;;;;;;4.90;4.50;;;;;;;14.49;75.03;99850.29;218275;1256;140707;-68
2023/07/14 01:28:42;;;;;;;5.20;4.70;;;;;;;14.38;75.26;99857.95;217460;1257;141667;-67
2023/07/14 01:33:46;;;;;;;5.30;4.40;;;;;;;14.23;75.16;99860.30;219793;1256;140768;-68
2023/07/14 01:38:53;;;;;;;5.40;4.80;;;;;;;14.12;75.34;99866.68;218488;1256;139688;-66
2023/07/14 01:44:03;;;;;;;8.10;5.30;;;;;;;14.01;75.31;99873.56;219469;1256;140789;-67
2023/07/14 01:49:41;;;;;;;4.90;4.50;;;;;;;13.91;75.59;99875.23;218300;1256;141047;-68
2023/07/14 01:54:54;;;;;;;6.30;5.60;;;;;;;13.86;75.59;99879.67;220055;1255;140280;-68
2023/07/14 02:00:09;;;;;;;8.60;5.20;;;;;;;13.84;75.96;99880.18;220434;1256;141769;-69
2023/07/14 02:05:21;;;;;;;6.60;5.60;;;;;;;13.85;76.23;99881.70;219382;1256;140039;-69
2023/07/14 02:10:26;;;;;;;7.50;5.60;;;;;;;13.90;76.36;99886.09;220435;1256;140087;-69
2023/07/14 02:15:33;;;;;;;6.10;5.40;;;;;;;13.95;76.59;99896.44;220061;1256;140833;-65
2023/07/14 02:20:39;;;;;;;7.30;6.30;;;;;;;13.96;76.44;99904.12;218521;1255;141031;-69
2023/07/14 02:25:46;;;;;;;5.80;4.60;;;;;;;13.89;76.16;99909.40;219034;1256;140601;-69
2023/07/14 02:30:55;;;;;;;;;;;;;;;13.79;76.25;99915.08;217897;1256;140016;-69
2023/07/14 02:36:22;;;;;;;4.40;4.00;;;;;;;13.62;75.97;99919.88;218996;1256;127043;-69
2023/07/14 02:41:35;;;;;;;6.00;5.20;;;;;;;13.45;75.92;99922.13;218114;1256;140386;-68
2023/07/14 02:46:51;;;;;;;5.40;4.90;;;;;;;13.31;75.96;99927.19;218365;1256;141029;-69
2023/07/14 02:51:57;;;;;;;7.10;5.70;;;;;;;13.22;76.36;99923.91;217905;1256;140051;-68
2023/07/14 02:57:03;;;;;;;5.80;4.90;;;;;;;13.18;76.48;99930.76;218441;1256;140677;-68
2023/07/14 03:02:07;;;;;;;7.50;5.50;;;;;;;13.10;76.20;99928.01;217840;1260;140044;-69
2023/07/14 03:07:12;;;;;;;5.00;4.60;;;;;;;12.99;76.27;99932.50;217871;1257;139923;-68
2023/07/14 03:12:17;;;;;;;5.90;5.40;;;;;;;12.88;76.47;99939.23;218100;1256;140749;-69
2023/07/14 03:17:22;;;;;;;5.90;5.40;;;;;;;12.86;76.88;99946.14;217961;1256;139859;-67
2023/07/14 03:22:30;;;;;;;9.70;5.90;;;;;;;12.88;77.10;99960.58;218446;1256;141171;-69
2023/07/14 03:27:36;;;;;;;4.70;4.30;;;;;;;12.91;77.05;99962.34;218759;1257;140216;-68
2023/07/14 03:32:40;;;;;;;5.90;5.10;;;;;;;12.92;77.05;99967.98;219375;1256;142462;-68
2023/07/14 03:37:46;;;;;;;5.20;4.70;;;;;;;12.91;76.68;99971.59;218704;1256;142017;-67
2023/07/14 03:42:52;;;;;;;6.60;6.00;;;;;;;12.96;77.59;99976.71;218220;1256;139714;-68
2023/07/14 03:47:56;;;;;;;5.90;5.40;;;;;;;13.07;77.58;99973.63;219457;1256;151256;-68
2023/07/14 03:53:00;;;;;;;6.10;5.50;;;;;;;13.22;77.54;99976.36;220322;1256;140886;-69
2023/07/14 03:58:04;;;;;;;7.30;5.70;;;;;;;13.33;77.78;99974.34;220473;1256;140368;-67
2023/07/14 04:03:09;;;;;;;6.70;6.20;;;;;;;13.54;78.24;99969.42;218713;1256;140092;-67
2023/07/14 04:08:13;;;;;;;6.30;5.70;;;;;;;13.93;78.27;99974.51;219803;1256;140000;-69
2023/07/14 04:13:18;;;;;;;6.50;5.40;;;;;;;14.25;78.25;99979.90;219932;1256;142196;-68
2023/07/14 04:29:25;;;;;;;7.60;5.30;;;;;;;15.48;78.07;99988.45;216134;1292;683518;-69
2023/07/14 04:34:27;;;;;;;6.60;5.50;;;;;;;17.23;76.25;99990.70;217629;1268;138943;-68
2023/07/14 04:39:31;;;;;;;5.10;4.70;;;;;;;17.51;75.88;99999.33;215909;1266;712586;-68
2023/07/14 04:44:35;;;;;;;5.70;5.00;;;;;;;17.76;75.11;100006.16;217522;1265;139078;-67
2023/07/14 04:49:39;;;;;;;7.10;4.50;;;;;;;18.75;73.66;100011.91;216826;1266;141710;-67
2023/07/14 04:54:42;;;;;;;6.70;4.80;;;;;;;18.87;72.88;100010.30;217000;1266;139050;-68
2023/07/14 04:59:45;;;;;;;5.30;4.80;;;;;;;19.43;71.81;100014.45;218298;1254;141115;-67
2023/07/14 05:20:13;;;;;;;7.20;4.40;;;;;;;21.67;67.87;100033.45;214256;1294;683432;-68
2023/07/14 05:25:17;;;;;;;3.80;3.60;;;;;;;23.32;64.89;100040.15;217238;1270;140032;-68
2023/07/14 05:30:21;;;;;;;7.20;3.50;;;;;;;26.46;60.08;100040.39;216792;1267;480683;-67
2023/07/14 05:35:24;;;;;;;10.00;3.40;;;;;;;29.33;56.91;100056.11;217048;1272;139706;-67
2023/07/14 05:40:29;;;;;;;7.60;4.20;;;;;;;31.69;52.54;100065.88;218358;1269;138211;-67
2023/07/14 05:45:50;;;;;;;7.00;3.00;;;;;;;33.78;48.96;100070.40;219754;1262;243260;-69
2023/07/14 05:50:53;;;;;;;5.40;3.70;;;;;;;35.40;45.49;100068.95;219766;1263;139233;-69
2023/07/14 06:01:48;;;;;;;4.00;2.20;;;;;;;37.11;39.76;100074.35;216395;1294;683119;-71
2023/07/14 06:06:52;;;;;;;2.00;1.60;;;;;;;38.20;37.91;100072.15;216518;1270;138412;-70
2023/07/14 06:11:58;;;;;;;3.80;3.20;;;;;;;38.92;36.18;100074.60;216167;1271;572264;-70
2023/07/14 06:17:03;;;;;;;8.80;1.70;;;;;;;39.48;34.64;100074.92;217122;1272;138183;-71
2023/07/14 06:22:07;;;;;;;1.80;1.70;;;;;;;39.91;33.50;100076.61;217417;1260;138408;-69
2023/07/14 06:27:09;;;;;;;5.10;1.60;;;;;;;39.73;32.49;100072.20;218831;1255;138465;-70
2023/07/14 06:32:15;;;;;;;3.00;1.90;;;;;;;39.82;31.62;100067.66;218084;1257;138526;-69
2023/07/14 06:37:20;;;;;;;2.20;1.50;;;;;;;39.53;30.65;100066.00;217874;1257;138353;-69
2023/07/14 06:42:23;;;;;;;2.00;1.60;;;;;;;39.43;30.43;100063.92;217709;1257;138819;-69
2023/07/14 06:47:27;;;;;;;1.10;1.00;;;;;;;38.88;29.73;100069.88;218017;1258;138785;-69
2023/07/14 06:52:37;;;;;;;0.80;0.80;;;;;;;38.05;29.49;100070.13;217911;1260;138444;-69
2023/07/14 06:57:42;;;;;;;1.10;0.80;;;;;;;36.98;29.40;100066.64;218066;1257;138796;-69
2023/07/14 07:02:45;;;;;;;2.30;1.10;;;;;;;36.85;29.47;100075.05;218503;1256;138521;-69
2023/07/14 07:07:51;;;;;;;0.90;0.90;;;;;;;37.04;29.13;100076.86;218479;1258;138507;-69
2023/07/14 07:12:55;;;;;;;1.70;0.90;;;;;;;37.02;29.08;100076.45;217956;1258;139844;-69
2023/07/14 07:17:59;;;;;;;1.00;1.00;;;;;;;37.30;29.00;100080.52;218592;1258;138761;-69
2023/07/14 07:23:04;;;;;;;0.80;0.80;;;;;;;37.67;28.70;100083.85;219369;1257;138698;-70
2023/07/14 07:28:08;;;;;;;2.10;0.90;;;;;;;37.63;28.91;100080.55;220488;1256;138775;-70
2023/07/14 07:33:11;;;;;;;1.10;1.10;;;;;;;37.23;28.89;100076.74;219396;1258;140143;-68
2023/07/14 07:38:15;;;;;;;;;;;;;;;36.29;29.06;100079.89;218711;1256;139155;-68
2023/07/14 07:43:22;;;;;;;1.90;1.20;;;;;;;35.70;29.78;100077.55;219900;1256;126399;-68
2023/07/14 07:48:26;;;;;;;1.30;1.10;;;;;;;35.09;29.77;100081.23;218727;1257;140269;-68
2023/07/14 07:53:29;;;;;;;;;;;;;;;34.29;30.23;100083.21;218718;1257;139626;-68
2023/07/14 07:58:32;;;;;;;2.00;1.30;;;;;;;33.76;30.80;100077.77;218177;1260;126047;-67
2023/07/14 08:03:36;;;;;;;1.70;1.60;;;;;;;33.51;31.14;100077.86;219209;1256;139012;-68
2023/07/14 08:08:42;;;;;;;1.70;1.40;;;;;;;33.28;31.59;100082.27;217654;1258;139854;-67
2023/07/14 08:18:45;;;;;;;7.50;1.50;;;;;;;32.51;31.89;100086.29;215748;1292;684896;-69
2023/07/14 08:23:49;;;;;;;6.80;1.70;;;;;;;32.04;32.25;100081.80;216454;1269;139214;-68
2023/07/14 08:28:52;;;;;;;1.40;1.30;;;;;;;31.72;32.63;100078.27;216048;1266;899619;-70
2023/07/14 08:33:56;;;;;;;4.60;2.00;;;;;;;31.43;33.19;100078.10;216590;1266;138541;-67
2023/07/14 08:39:03;;;;;;;1.60;1.20;;;;;;;31.30;33.14;100076.90;216607;1266;138686;-67
2023/07/14 08:44:31;;;;;;;2.10;1.70;;;;;;;31.13;32.67;100072.55;217034;1267;138204;-68
2023/07/14 08:50:03;;;;;;;3.20;1.90;;;;;;;31.07;33.08;100074.00;216600;1267;140134;-67
2023/07/14 08:55:23;;;;;;;1.50;1.40;;;;;;;31.04;33.15;100074.57;217309;1266;138967;-67
2023/07/14 09:00:38;;;;;;;5.60;1.90;;;;;;;30.88;33.37;100073.32;216859;1266;138706;-68
2023/07/14 09:05:58;;;;;;;4.60;1.60;;;;;;;30.76;33.44;100070.95;217251;1267;139227;-68
2023/07/14 09:11:51;;;;;;;6.60;2.20;;;;;;;30.64;33.49;100072.50;216433;1267;138852;-67
2023/07/14 09:17:22;;;;;;;1.60;1.50;;;;;;;30.32;33.41;100070.84;216448;1273;139249;-67
2023/07/14 09:22:43;;;;;;;1.60;1.40;;;;;;;29.93;33.27;100063.32;217022;1266;140184;-67
2023/07/14 09:27:50;;;;;;;1.50;1.40;;;;;;;29.77;33.69;100059.23;218255;1259;138476;-67
2023/07/14 09:33:01;;;;;;;2.40;1.70;;;;;;;29.93;33.90;100056.63;218193;1260;139982;-68
2023/07/14 09:38:21;;;;;;;1.70;1.60;;;;;;;30.00;33.80;100053.43;219682;1259;138467;-68
2023/07/14 09:43:25;;;;;;;1.60;1.50;;;;;;;30.03;33.85;100051.16;219797;1259;139429;-68
2023/07/14 09:48:34;;;;;;;1.90;1.80;;;;;;;30.06;33.57;100048.23;217944;1259;139167;-70
2023/07/14 09:53:39;;;;;;;1.90;1.60;;;;;;;30.23;33.74;100043.39;217470;1262;140538;-70
2023/07/14 09:59:01;;;;;;;1.70;1.60;;;;;;;30.25;33.40;100047.13;218275;1259;139107;-70
2023/07/14 10:04:13;;;;;;;6.30;2.20;;;;;;;30.32;33.67;100045.60;217252;1260;139256;-68
2023/07/14 10:09:19;;;;;;;1.30;1.20;;;;;;;29.78;33.50;100033.75;218088;1259;150731;-68
2023/07/14 10:14:38;;;;;;;1.50;1.40;;;;;;;29.48;33.64;100032.46;217389;1260;138667;-68
2023/07/14 10:19:43;;;;;;;4.20;1.70;;;;;;;29.25;34.06;100028.09;218472;1260;139859;-68
2023/07/14 10:24:57;;;;;;;;;;;;;;;29.28;33.84;100018.81;217382;1262;138609;-68
2023/07/14 10:30:06;;;;;;;2.20;1.80;;;;;;;29.30;34.07;100020.66;217713;1259;125179;-67
2023/07/14 10:35:15;;;;;;;1.40;1.10;;;;;;;29.50;34.17;100016.89;217622;1258;141598;-68
2023/07/14 10:40:23;;;;;;;2.90;1.70;;;;;;;29.17;33.60;100014.06;218373;1257;139545;-68
2023/07/14 10:45:28;;;;;;;3.70;1.30;;;;;;;29.41;33.92;100004.88;217554;1258;138702;-68
2023/07/14 10:50:53;;;;;;;5.30;1.80;;;;;;;29.25;33.95;100003.98;217937;1257;139276;-68
2023/07/14 10:56:02;;;;;;;1.60;1.20;;;;;;;29.35;33.66;100001.02;217919;1259;138986;-68
2023/07/14 11:01:20;;;;;;;1.80;1.10;;;;;;;29.37;33.95;99996.29;218081;1261;140276;-68
2023/07/14 11:06:29;;;;;;;1.90;1.30;;;;;;;29.47;33.62;99998.60;218032;1257;139167;-68
2023/07/14 11:11:45;;;;;;;1.20;1.00;;;;;;;29.31;33.55;99991.60;217314;1258;139902;-68
2023/07/14 11:17:20;;;;;;;2.70;1.50;;;;;;;29.42;33.61;99986.86;218525;1259;139479;-69
2023/07/14 11:22:33;;;;;;;1.60;1.50;;;;;;;29.59;33.31;99985.80;219320;1257;138696;-68
2023/07/14 11:27:55;;;;;;;1.60;1.50;;;;;;;29.64;32.70;99986.77;220312;1257;139282;-69
2023/07/14 11:33:18;;;;;;;8.20;2.00;;;;;;;29.67;32.65;99987.25;220224;1257;139502;-69
2023/07/14 11:38:39;;;;;;;1.80;1.60;;;;;;;29.40;32.13;99987.59;219640;1257;139833;-68
2023/07/14 11:43:44;;;;;;;1.70;1.40;;;;;;;29.20;32.43;99983.45;219817;1254;138787;-68
2023/07/14 11:48:49;;;;;;;1.30;1.20;;;;;;;29.30;32.06;99981.15;218773;1254;138848;-68
2023/07/14 11:54:25;;;;;;;1.30;1.30;;;;;;;29.44;31.94;99981.42;219731;1254;138595;-68
2023/07/14 11:59:31;;;;;;;1.30;0.90;;;;;;;29.52;31.89;99978.49;218439;1254;138849;-68
2023/07/14 12:04:34;;;;;;;1.40;1.30;;;;;;;29.44;31.52;99970.59;218853;1257;139628;-69
2023/07/14 12:09:57;;;;;;;4.30;1.60;;;;;;;28.95;31.34;99972.62;218280;1254;138753;-68
2023/07/14 12:15:00;;;;;;;1.60;1.50;;;;;;;28.97;31.91;99968.21;218067;1254;140353;-68
2023/07/14 12:20:16;;;;;;;1.60;1.50;;;;;;;29.02;31.66;99963.58;218502;1254;138261;-69
2023/07/14 12:25:23;;;;;;;1.90;1.30;;;;;;;29.10;31.96;99962.27;218311;1258;139367;-67
2023/07/14 12:30:29;;;;;;;3.60;1.40;;;;;;;28.80;31.46;99968.90;218277;1258;138943;-67
2023/07/14 12:35:37;;;;;;;1.60;1.40;;;;;;;28.75;31.42;99964.77;218381;1254;138624;-68
2023/07/14 12:40:43;;;;;;;1.40;1.10;;;;;;;28.90;31.67;99954.46;218301;1254;139304;-68
2023/07/14 12:45:47;;;;;;;9.20;1.70;;;;;;;28.92;31.39;99955.13;218022;1254;139710;-67
2023/07/14 12:50:53;;;;;;;3.00;1.10;;;;;;;28.92;31.36;99943.08;218271;1256;140025;-68
2023/07/14 12:56:04;;;;;;;3.10;1.80;;;;;;;29.01;31.75;99940.27;218151;1259;139934;-68
2023/07/14 13:01:08;;;;;;;1.60;1.10;;;;;;;28.62;30.92;99944.50;218032;1254;138594;-67
2023/07/14 13:06:17;;;;;;;1.70;1.60;;;;;;;28.20;31.33;99941.60;218497;1258;140010;-69
2023/07/14 13:11:25;;;;;;;2.00;1.20;;;;;;;28.28;31.37;99932.73;218065;1257;138829;-68
2023/07/14 13:16:35;;;;;;;1.40;1.30;;;;;;;28.36;31.92;99928.45;219269;1254;139470;-67
2023/07/14 13:21:45;;;;;;;4.00;1.60;;;;;;;28.37;32.12;99928.16;219602;1254;139032;-69
2023/07/14 13:26:52;;;;;;;2.00;1.20;;;;;;;28.37;32.11;99924.71;219540;1258;139045;-69
2023/07/14 13:32:02;;;;;;;3.60;1.40;;;;;;;28.09;31.72;99919.79;219178;1254;139593;-73
2023/07/14 13:37:11;;;;;;;1.40;1.30;;;;;;;27.84;32.09;99925.54;220832;1255;138596;-69
2023/07/14 13:42:26;;;;;;;1.10;1.10;;;;;;;27.60;32.38;99918.23;220354;1256;139773;-66
2023/07/14 13:47:44;;;;;;;5.70;1.70;;;;;;;27.69;32.45;99911.00;219404;1256;246586;-68
2023/07/14 13:52:47;;;;;;;2.30;1.20;;;;;;;27.70;32.18;99914.27;219694;1257;138868;-65
2023/07/14 13:57:55;;;;;;;2.00;1.20;;;;;;;27.66;32.50;99916.06;218019;1258;137973;-66
2023/07/14 14:03:00;;;;;;;1.50;1.40;;;;;;;27.47;32.54;99915.14;219714;1255;139207;-69
2023/07/14 14:08:09;;;;;;;1.30;1.20;;;;;;;27.55;32.35;99906.02;219168;1255;138873;-69
2023/07/14 14:13:17;;;;;;;1.40;1.20;;;;;;;27.80;32.56;99898.98;217769;1259;139689;-68
2023/07/14 14:18:26;;;;;;;2.20;1.10;;;;;;;28.06;32.57;99895.77;219904;1256;139886;-68
2023/07/14 14:23:34;;;;;;;2.70;1.40;;;;;;;28.05;32.04;99898.77;219591;1257;138442;-67
2023/07/14 14:28:38;;;;;;;1.40;1.20;;;;;;;27.86;31.96;99894.74;218788;1257;138802;-70
2023/07/14 14:33:43;;;;;;;1.30;1.20;;;;;;;27.81;32.19;99891.19;217913;1258;139851;-71
2023/07/14 14:38:50;;;;;;;2.10;1.50;;;;;;;27.47;31.76;99891.37;218065;1257;141524;-72
2023/07/14 14:43:55;;;;;;;1.60;1.40;;;;;;;27.38;32.23;99881.53;217867;1257;138489;-72
2023/07/14 14:48:59;;;;;;;1.50;1.30;;;;;;;27.25;32.77;99882.60;217673;1256;138805;-71
2023/07/14 14:54:07;;;;;;;4.50;1.20;;;;;;;27.06;33.10;99878.27;217705;1256;139028;-68
2023/07/14 14:59:25;;;;;;;2.50;1.60;;;;;;;27.22;33.07;99870.21;217754;1259;139921;-67
2023/07/14 15:04:31;;;;;;;1.60;1.50;;;;;;;27.46;32.90;99869.98;219294;1256;138369;-71
2023/07/14 15:09:36;;;;;;;2.30;1.50;;;;;;;27.60;32.88;99867.44;217935;1259;139163;-70
2023/07/14 15:14:41;;;;;;;1.90;1.70;;;;;;;27.60;32.70;99867.61;218855;1257;138377;-73
2023/07/14 15:19:48;;;;;;;2.60;2.40;;;;;;;27.58;32.69;99870.61;219654;1256;138565;-70
2023/07/14 15:24:52;;;;;;;4.10;1.50;;;;;;;27.28;32.72;99862.52;220460;1256;139390;-69
2023/07/14 15:30:20;;;;;;;1.80;1.70;;;;;;;27.05;33.10;99867.11;220506;1256;138499;-68
2023/07/14 15:35:26;;;;;;;2.20;2.10;;;;;;;27.23;33.14;99867.77;220369;1257;140143;-69
2023/07/14 15:40:53;;;;;;;2.50;2.30;;;;;;;27.44;33.27;99863.20;220626;1256;139100;-70
2023/07/14 15:46:02;;;;;;;5.10;2.70;;;;;;;27.50;33.01;99861.66;218389;1259;139586;-74
2023/07/14 15:51:19;;;;;;;2.60;1.70;;;;;;;27.54;32.42;99856.28;220319;1257;139747;-67
2023/07/14 15:56:25;;;;;;;2.60;1.60;;;;;;;27.42;32.13;99850.84;218220;1257;138630;-70
2023/07/14 16:01:32;;;;;;;2.40;1.80;;;;;;;27.38;32.25;99851.73;218659;1261;139261;-67
2023/07/14 16:06:39;;;;;;;1.50;1.50;;;;;;;27.28;32.67;99850.16;217778;1259;139562;-66
2023/07/14 16:11:43;;;;;;;4.10;1.70;;;;;;;27.16;32.54;99854.55;217569;1257;138859;-69
2023/07/14 16:16:49;;;;;;;3.30;1.50;;;;;;;27.00;32.73;99848.49;218329;1261;138804;-70
2023/07/14 16:21:54;;;;;;;1.40;1.30;;;;;;;26.80;32.80;99850.63;217817;1257;138610;-70
2023/07/14 16:26:58;;;;;;;1.90;1.80;;;;;;;26.58;32.84;99848.95;218485;1257;139707;-69
2023/07/14 16:32:02;;;;;;;1.60;1.50;;;;;;;26.44;32.92;99845.66;217660;1257;140871;-69
2023/07/14 16:37:13;;;;;;;1.90;1.70;;;;;;;26.43;33.61;99844.63;217757;1257;230296;-70
2023/07/14 16:42:22;;;;;;;1.50;1.30;;;;;;;26.45;33.81;99845.07;217687;1256;140150;-69
2023/07/14 16:47:25;;;;;;;1.70;1.60;;;;;;;26.37;33.46;99847.98;218488;1257;138915;-69
2023/07/14 16:52:31;;;;;;;5.00;1.50;;;;;;;26.22;33.63;99847.27;218096;1257;139483;-68
2023/07/14 16:57:38;;;;;;;1.70;1.60;;;;;;;26.12;33.34;99845.52;218412;1259;138574;-69
2023/07/14 17:02:44;;;;;;;1.60;1.50;;;;;;;26.07;33.34;99846.02;218328;1259;138484;-69
2023/07/14 17:07:49;;;;;;;2.20;1.60;;;;;;;25.98;33.53;99846.16;217787;1256;138773;-68
2023/07/14 17:12:56;;;;;;;1.60;1.40;;;;;;;25.93;33.88;99843.88;219479;1256;139923;-68
2023/07/14 17:18:01;;;;;;;3.60;2.00;;;;;;;25.84;34.19;99841.91;219110;1257;140934;-69
2023/07/14 17:23:06;;;;;;;9.60;1.50;;;;;;;25.78;34.48;99834.89;220283;1257;138878;-70
2023/07/14 17:28:17;;;;;;;1.50;1.40;;;;;;;25.71;34.67;99838.44;220487;1256;139670;-72
2023/07/14 17:33:23;;;;;;;4.40;1.80;;;;;;;25.56;34.95;99838.08;220413;1259;139665;-73
2023/07/14 17:38:31;;;;;;;6.70;2.30;;;;;;;25.46;35.79;99836.15;219326;1257;138962;-72
2023/07/14 17:43:40;;;;;;;1.90;1.80;;;;;;;25.33;36.21;99834.86;219088;1256;139455;-70
2023/07/14 17:48:47;;;;;;;1.80;1.70;;;;;;;25.14;37.24;99838.33;218286;1258;139037;-71
2023/07/14 17:54:03;;;;;;;2.50;1.70;;;;;;;24.95;37.96;99835.52;217655;1256;139536;-69
2023/07/14 17:59:25;;;;;;;11.30;4.10;;;;;;;24.70;38.94;99838.30;218597;1259;139829;-69
2023/07/14 18:04:29;;;;;;;2.60;1.90;;;;;;;24.42;39.75;99840.23;217784;1256;139840;-68
2023/07/14 18:09:33;;;;;;;2.00;1.60;;;;;;;24.18;40.59;99843.75;218470;1257;139080;-69
2023/07/14 18:14:39;;;;;;;1.90;1.80;;;;;;;23.94;41.82;99845.23;217655;1257;139007;-69
2023/07/14 18:19:43;;;;;;;2.30;2.10;;;;;;;23.65;42.54;99851.85;218212;1259;139579;-69
2023/07/14 18:24:50;;;;;;;1.60;1.50;;;;;;;23.40;42.78;99855.65;217810;1262;140282;-69
2023/07/14 18:29:55;;;;;;;2.80;1.80;;;;;;;23.15;43.41;99852.16;217848;1257;141114;-75
2023/07/14 18:35:00;;;;;;;3.40;2.10;;;;;;;22.88;43.98;99858.42;217989;1257;139383;-73
2023/07/14 18:40:09;;;;;;;2.30;2.20;;;;;;;22.66;44.97;99859.27;218672;1260;139961;-73
2023/07/14 18:45:28;;;;;;;1.50;1.10;;;;;;;22.41;45.79;99860.00;218366;1256;138853;-72
2023/07/14 18:50:42;;;;;;;2.10;1.80;;;;;;;22.16;46.48;99858.13;217626;1257;139304;-72
2023/07/14 18:55:48;;;;;;;2.10;2.00;;;;;;;21.92;46.96;99854.34;218249;1260;141678;-70
2023/07/14 19:00:59;;;;;;;2.40;2.30;;;;;;;21.66;47.27;99850.73;217753;1256;138911;-71
2023/07/14 19:06:06;;;;;;;2.90;1.90;;;;;;;21.42;48.01;99858.57;219016;1260;138739;-71
2023/07/14 19:11:16;;;;;;;3.10;2.00;;;;;;;21.17;48.42;99859.55;218412;1260;139343;-70
2023/07/14 19:16:28;;;;;;;4.00;2.00;;;;;;;20.84;48.44;99864.52;218151;1257;140103;-71
2023/07/14 19:21:34;;;;;;;4.20;2.40;;;;;;;20.40;49.08;99867.27;220088;1259;139110;-71
2023/07/14 19:26:38;;;;;;;7.20;2.20;;;;;;;20.04;49.54;99865.15;220135;1257;139614;-71
2023/07/14 19:31:45;;;;;;;4.90;2.00;;;;;;;19.86;50.64;99863.04;218450;1260;140508;-71
2023/07/14 19:36:50;;;;;;;2.70;2.50;;;;;;;19.75;51.27;99859.39;217861;1260;139616;-69
2023/07/14 19:42:00;;;;;;;2.10;2.10;;;;;;;19.62;51.71;99857.25;218598;1260;140364;-69
2023/07/14 19:47:17;;;;;;;3.10;2.30;;;;;;;19.47;52.13;99857.70;218934;1260;139248;-67
2023/07/14 19:52:25;;;;;;;2.90;2.30;;;;;;;19.17;52.10;99859.30;219312;1257;139044;-67
2023/07/14 19:57:36;;;;;;;2.90;2.50;;;;;;;18.80;52.80;99854.27;218769;1260;139365;-68
2023/07/14 20:02:52;;;;;;;3.40;2.90;;;;;;;18.65;53.58;99863.52;217763;1260;140124;-70
2023/07/14 20:08:00;;;;;;;6.00;2.60;;;;;;;18.53;54.02;99863.58;218307;1259;139603;-68
2023/07/14 20:13:21;;;;;;;19.40;3.30;;;;;;;18.26;54.31;99868.00;217714;1258;139231;-70
2023/07/14 20:18:30;;;;;;;9.60;3.10;;;;;;;17.94;54.99;99868.50;218401;1261;139052;-71
2023/07/14 20:23:43;;;;;;;7.80;3.40;;;;;;;17.75;55.67;99867.11;217528;1260;138624;-71
2023/07/14 20:28:51;;;;;;;6.40;2.70;;;;;;;17.68;56.39;99865.06;216960;1260;1852251;-72
2023/07/14 20:33:57;;;;;;;;;;;;;;;17.56;56.63;99866.05;217800;1260;140085;-71
2023/07/14 20:39:03;;;;;;;10.60;3.50;;;;;;;17.43;57.28;99864.28;218068;1262;127228;-72
2023/07/14 20:44:13;;;;;;;7.10;3.60;;;;;;;17.37;57.79;99868.41;218536;1260;139885;-71
2023/07/14 20:49:22;;;;;;;20.50;4.60;;;;;;;17.30;58.37;99871.88;217558;1260;139819;-68
2023/07/14 20:54:28;;;;;;;14.70;4.30;;;;;;;17.26;58.67;99870.39;217625;1257;139293;-69
2023/07/14 20:59:33;;;;;;;28.40;5.40;;;;;;;17.32;59.36;99868.00;219010;1260;139467;-72
2023/07/14 21:04:38;;;;;;;16.80;4.90;;;;;;;17.33;59.58;99865.14;217747;1261;139042;-73
2023/07/14 21:09:42;;;;;;;13.80;4.90;;;;;;;17.32;59.65;99860.52;219397;1260;139045;-73
2023/07/14 21:14:47;;;;;;;16.90;4.20;;;;;;;17.27;59.88;99862.14;218107;1260;139922;-72
2023/07/14 21:20:02;;;;;;;15.30;5.10;;;;;;;17.27;60.54;99861.98;219778;1257;139642;-75
2023/07/14 21:25:12;;;;;;;11.00;4.20;;;;;;;17.31;60.75;99853.13;220341;1260;139493;-74
2023/07/14 21:30:15;;;;;;;12.40;4.50;;;;;;;17.28;60.81;99857.08;220504;1256;140661;-69
2023/07/14 21:35:20;;;;;;;7.20;4.40;;;;;;;17.17;60.83;99855.92;220402;1257;139159;-71
2023/07/14 21:40:22;;;;;;;16.40;5.10;;;;;;;17.10;60.84;99854.98;217805;1260;139923;-67
2023/07/14 21:45:25;;;;;;;8.20;4.10;;;;;;;17.00;61.11;99857.07;220551;1256;141804;-70
2023/07/14 21:50:29;;;;;;;15.30;5.30;;;;;;;16.85;61.40;99857.91;218736;1257;139822;-69
2023/07/14 21:55:32;;;;;;;5.70;4.80;;;;;;;16.69;61.60;99857.73;217739;1258;139783;-69
2023/07/14 22:00:36;;;;;;;11.00;5.20;;;;;;;16.54;62.02;99859.42;217867;1258;139986;-70
2023/07/14 22:05:45;;;;;;;9.60;5.90;;;;;;;16.44;62.29;99863.87;218072;1258;139811;-69
2023/07/14 22:10:52;;;;;;;9.30;5.30;;;;;;;16.26;62.38;99860.68;218527;1260;139362;-69
2023/07/14 22:15:56;;;;;;;;;;;;;;;16.06;62.63;99866.11;217852;1257;139994;-70
2023/07/14 22:21:00;;;;;;;10.60;5.70;;;;;;;15.86;63.23;99870.27;218072;1257;126813;-68
2023/07/14 22:26:19;;;;;;;7.80;4.10;;;;;;;15.73;63.51;99871.38;217508;1258;139719;-68
2023/07/14 22:31:26;;;;;;;15.20;7.30;;;;;;;15.60;63.83;99871.77;217802;1257;139435;-69
2023/07/14 22:36:29;;;;;;;7.50;6.10;;;;;;;15.49;63.98;99868.64;218993;1256;139740;-71
2023/07/14 22:41:39;;;;;;;11.70;6.70;;;;;;;15.41;64.02;99868.98;217648;1257;141062;-73
2023/07/14 22:46:42;;;;;;;11.60;7.00;;;;;;;15.35;64.25;99867.07;218250;1258;140220;-72
2023/07/14 22:51:53;;;;;;;12.70;6.40;;;;;;;15.30;64.51;99860.40;218637;1258;140108;-70
2023/07/14 22:56:57;;;;;;;10.10;7.30;;;;;;;15.18;64.44;99856.82;217595;1258;139834;-71
2023/07/14 23:02:00;;;;;;;7.10;6.00;;;;;;;14.97;64.47;99860.77;220086;1256;140519;-72
2023/07/14 23:07:09;;;;;;;16.20;7.50;;;;;;;14.80;64.79;99860.73;217882;1259;139643;-70
2023/07/14 23:12:15;;;;;;;16.20;8.10;;;;;;;14.74;65.23;99867.34;218705;1260;141409;-69
2023/07/14 23:17:18;;;;;;;8.60;6.00;;;;;;;14.64;65.69;99863.49;220316;1256;139656;-76
2023/07/14 23:22:25;;;;;;;14.10;7.40;;;;;;;14.56;65.71;99858.60;220399;1256;140321;-77
2023/07/14 23:27:29;;;;;;;12.00;7.00;;;;;;;14.47;65.68;99862.39;220017;1256;140931;-77
2023/07/14 23:32:33;;;;;;;18.30;10.50;;;;;;;14.38;65.92;99859.84;218650;1257;140223;-72
2023/07/14 23:37:38;;;;;;;13.80;9.50;;;;;;;14.26;66.21;99862.14;218428;1257;140778;-67
2023/07/14 23:42:43;;;;;;;14.90;9.10;;;;;;;14.15;66.56;99860.16;218399;1260;139566;-72
2023/07/14 23:47:47;;;;;;;14.70;11.50;;;;;;;14.15;66.86;99862.36;218065;1256;140781;-69
2023/07/14 23:52:50;;;;;;;14.10;9.20;;;;;;;14.00;66.67;99861.21;218142;1258;139754;-73
2023/07/14 23:57:57;;;;;;;15.30;9.10;;;;;;;13.86;67.40;99861.77;217814;1260;139929;-73
